Aérodrome :
LOGIN :

S'inscrire | Disclaimer

   EN    FR    IT 

 










Légende :    VFR   VFR Marginal   IFR   IFR Intensif   IFR Très Intensif
Visi : 
Plafond : 
>= 8 km
>= 3000ft
5 à 8 km
1000 à 3000 ft
1500m à 5 km
500 à 1000 ft
800 à 1500m
200 à 500 ft
< 800m
< 200 ft
Symboles :   Orages  Brouillard  Fortes neiges  Fortes précipitations  Vent > 20 kt
SIGMETs :   Divers  Orages  Givrage  Turbulence  Onde Orograph.  Cendres Volcan.







- Altitude de l'aérodrome : 485 ft
- Code IATA : QSA


LELL - Sabadell

DERNIER METAR :
  • 231330Z 13012KT 080V160 9999 FEW050 31/20 Q1015

METARs EXPIRÉS :
  • 231300Z 15010KT 120V200 9999 R31///// FEW050 31/19 Q1015
  • 231230Z 11008KT 040V160 9999 FEW045 30/19 Q1015
  • 231200Z VRB04KT 9999 FEW045 31/17 Q1015
  • 231130Z 22005KT 150V290 9999 FEW045 30/16 Q1016
  • 231100Z 09002KT 9999 FEW045 30/16 Q1016
  • 231030Z 15002KT 9999 FEW040 29/17 Q1016

TAF TAF LELL
Valide du 23 à 09h jusqu'au 24 à 09h UTC


230800Z 2309/2409 VRB03KT 9999 FEW030 TX32/2313Z TN19/2405Z
BECMG 2313/2315 19010KT
BECMG 2318/2320 VRB03KT
Pas de NOTAMs connus pour ce terrain.



MET'MAP, la Météo Aéronautique d'un coup d'oeil ! - Copyright ORBIFLY Décembre 2007 - Disclaimer

ORBIFLY MET'MAP TEAM :

Programmation & Développement : Alexandra Zaïnal
Conception & Développement : Baudouin d'Aumeries
Co-Programmation & Développement : Marc-Olivier Méhu
Soutien technique & logistique : Manuel Goepfert

Contact : metmap@orbifly.com




SOURCES & CREDITS :

   NOAA